Time;durP1;ratioP1;P1;durP2;ratioP2;P2;SDS_P1;SDS_P2;PMS_P1;PMS_P2;Temp;Humidity;BMP_temperature;BMP_pressure;BME280_temperature;BME280_humidity;BME280_pressure;Samples;Min_cycle;Max_cycle;Signal;HPM_P1;HPM_P2
2022/02/07 09:41:03;;;;;;;4.43;2.17;;;;;;;;;;6157087;23;20009;-90
2022/02/07 09:43:32;;;;;;;2.95;1.80;;;;;;;;;;6184934;23;20020;-87
2022/02/07 09:46:11;;;;;;;2.80;1.77;;;;;;;;;;6186280;23;20076;-89
2022/02/07 09:48:39;;;;;;;6.45;1.77;;;;;;;;;;6156154;23;20283;-88
2022/02/07 09:51:09;;;;;;;1.77;1.30;;;;;;;;;;6156736;23;20008;-86
2022/02/07 09:53:35;;;;;;;1.13;0.95;;;;;;;;;;6156766;23;20002;-86
2022/02/07 09:56:06;;;;;;;1.00;0.90;;;;;;;;;;6156730;23;20009;-90
2022/02/07 09:58:34;;;;;;;1.00;0.70;;;;;;;;;;6155335;23;20063;-94
2022/02/07 10:01:02;;;;;;;2.00;1.08;;;;;;;;;;6155443;23;20006;-91
2022/02/07 10:03:42;;;;;;;4.55;1.02;;;;;;;;;;6155533;23;20002;-88
2022/02/07 10:06:17;;;;;;;;;;;;;;;;;;6155459;23;20381;-90
2022/02/07 10:19:29;;;;;;;2.05;0.70;;;;;;;;;;6157836;23;20140;-95
2022/02/07 10:41:53;;;;;;;2.45;2.20;;;;;;;;;;6162638;23;20017;-91
2022/02/07 10:44:45;;;;;;;5.65;2.35;;;;;;;;;;6158796;23;20036;-92
2022/02/07 10:47:25;;;;;;;2.65;2.45;;;;;;;;;;6134095;23;20005;-93
2022/02/07 10:50:11;;;;;;;2.05;1.85;;;;;;;;;;6136097;23;20495;-93
2022/02/07 10:52:48;;;;;;;1.80;1.70;;;;;;;;;;6132317;23;20009;-90
2022/02/07 10:55:25;;;;;;;1.60;1.35;;;;;;;;;;6136016;23;20012;-94
2022/02/07 10:57:52;;;;;;;2.00;1.90;;;;;;;;;;6137663;23;20409;-93
2022/02/07 11:00:26;;;;;;;4.00;1.85;;;;;;;;;;6135288;23;20084;-96
2022/02/07 11:03:16;;;;;;;1.77;1.67;;;;;;;;;;6136897;23;20081;-94
2022/02/07 11:05:43;;;;;;;1.73;1.63;;;;;;;;;;6162638;23;20029;-90
2022/02/07 11:16:31;;;;;;;2.67;1.08;;;;;;;;;;6170063;23;20432;-91
2022/02/07 11:19:15;;;;;;;1.75;0.80;;;;;;;;;;6132462;23;20014;-91
2022/02/07 11:22:09;;;;;;;2.50;1.25;;;;;;;;;;6132111;23;20332;-93
2022/02/07 11:27:40;;;;;;;1.87;1.13;;;;;;;;;;6161298;23;20009;-96
2022/02/07 11:30:10;;;;;;;0.98;0.73;;;;;;;;;;6136303;23;20005;-93
2022/02/07 11:32:39;;;;;;;1.80;0.93;;;;;;;;;;6133759;23;20034;-91
2022/02/07 11:35:07;;;;;;;1.30;1.20;;;;;;;;;;6135801;23;20008;-96
2022/02/07 11:37:33;;;;;;;0.82;0.75;;;;;;;;;;6134457;23;20002;-95
2022/02/07 11:40:01;;;;;;;1.90;0.90;;;;;;;;;;6134539;23;20009;-94
2022/02/07 11:42:28;;;;;;;1.77;1.42;;;;;;;;;;6161526;23;20005;-96
2022/02/07 11:44:53;;;;;;;0.63;0.60;;;;;;;;;;6135090;23;20010;-95
2022/02/07 11:47:29;;;;;;;0.93;0.80;;;;;;;;;;6134714;23;20032;-93
2022/02/07 11:50:03;;;;;;;2.33;0.98;;;;;;;;;;6136923;23;20437;-95
2022/02/07 11:52:29;;;;;;;0.70;0.70;;;;;;;;;;6133835;23;20009;-95
2022/02/07 11:55:40;;;;;;;0.70;0.70;;;;;;;;;;6168771;23;20005;-95
2022/02/07 11:58:22;;;;;;;1.00;0.80;;;;;;;;;;6017046;23;20065;-92
2022/02/07 12:00:55;;;;;;;0.60;0.60;;;;;;;;;;6018239;23;20018;-93
2022/02/07 12:32:47;;;;;;;1.40;0.70;;;;;;;;;;6152978;23;20018;-90
2022/02/07 12:35:13;;;;;;;1.88;0.40;;;;;;;;;;6156135;23;20005;-90
2022/02/07 12:37:40;;;;;;;1.70;0.52;;;;;;;;;;6157380;23;20005;-90
2022/02/07 12:40:08;;;;;;;1.13;0.80;;;;;;;;;;6155967;23;20084;-91
2022/02/07 12:42:35;;;;;;;0.57;0.50;;;;;;;;;;6155880;23;20009;-90
2022/02/07 12:45:02;;;;;;;0.60;0.50;;;;;;;;;;6157919;23;20315;-89
2022/02/07 17:10:54;;;;;;;1.10;0.90;;;;;;;;;;6183375;23;20009;-86
2022/02/07 17:13:19;;;;;;;1.30;0.95;;;;;;;;;;6184579;23;20016;-86
2022/02/07 17:15:45;;;;;;;0.80;0.80;;;;;;;;;;6184432;23;20056;-87
2022/02/07 17:18:14;;;;;;;0.85;0.47;;;;;;;;;;6186166;23;20001;-86
2022/02/07 17:20:40;;;;;;;0.80;0.68;;;;;;;;;;6184775;23;20009;-86
2022/02/07 17:23:07;;;;;;;1.00;0.80;;;;;;;;;;6186580;23;20025;-86
2022/02/07 17:25:32;;;;;;;0.80;0.80;;;;;;;;;;6186390;23;20327;-85
2022/02/07 17:27:58;;;;;;;0.50;0.50;;;;;;;;;;6185955;23;20009;-86
2022/02/07 17:30:23;;;;;;;1.35;0.70;;;;;;;;;;6184642;23;20049;-86
2022/02/07 17:32:49;;;;;;;1.13;0.65;;;;;;;;;;6184717;23;20031;-88
2022/02/07 17:35:15;;;;;;;1.13;0.80;;;;;;;;;;6186284;23;20005;-87
2022/02/07 17:37:42;;;;;;;1.05;0.75;;;;;;;;;;6184551;23;20071;-86
2022/02/07 17:40:10;;;;;;;0.60;0.57;;;;;;;;;;6184770;23;20005;-87
2022/02/07 17:42:39;;;;;;;1.00;0.70;;;;;;;;;;6186204;23;20416;-85
2022/02/07 17:45:07;;;;;;;0.85;0.60;;;;;;;;;;6184483;23;20383;-85
2022/02/07 17:47:33;;;;;;;1.20;0.90;;;;;;;;;;6186181;23;20001;-85
2022/02/07 17:49:59;;;;;;;1.83;0.80;;;;;;;;;;6184600;23;20009;-85
2022/02/07 17:52:25;;;;;;;0.82;0.70;;;;;;;;;;6186083;23;20009;-84
2022/02/07 17:54:51;;;;;;;0.80;0.80;;;;;;;;;;6186060;23;20005;-85
2022/02/07 17:57:18;;;;;;;0.70;0.70;;;;;;;;;;6186007;23;20005;-85
2022/02/07 17:59:44;;;;;;;1.95;0.80;;;;;;;;;;6185654;23;20072;-86
2022/02/07 18:02:09;;;;;;;0.77;0.70;;;;;;;;;;6184323;23;20056;-86
2022/02/07 18:04:35;;;;;;;1.17;1.08;;;;;;;;;;6185975;23;20029;-85
2022/02/07 18:07:00;;;;;;;1.27;0.93;;;;;;;;;;6186497;23;20005;-84
2022/02/07 18:09:26;;;;;;;0.82;0.80;;;;;;;;;;6184852;23;20009;-86
2022/02/07 18:11:51;;;;;;;1.60;0.98;;;;;;;;;;6185755;23;20428;-86
2022/02/07 18:14:16;;;;;;;0.80;0.80;;;;;;;;;;6184219;23;20005;-86
2022/02/07 18:16:42;;;;;;;0.77;0.70;;;;;;;;;;6186059;23;20005;-87
2022/02/07 18:19:14;;;;;;;0.60;0.60;;;;;;;;;;6186190;23;20080;-87
2022/02/07 18:21:41;;;;;;;0.70;0.60;;;;;;;;;;6184676;23;20041;-85
2022/02/07 18:24:08;;;;;;;1.35;0.80;;;;;;;;;;6184402;23;20421;-84
2022/02/07 18:26:35;;;;;;;0.90;0.70;;;;;;;;;;6184302;23;20336;-86
2022/02/07 18:29:02;;;;;;;1.15;0.60;;;;;;;;;;6184372;23;20016;-85
2022/02/07 18:31:27;;;;;;;1.67;1.10;;;;;;;;;;6188225;23;20027;-86
2022/02/07 18:33:54;;;;;;;0.63;0.50;;;;;;;;;;6186254;23;20421;-84
2022/02/07 18:36:27;;;;;;;0.70;0.60;;;;;;;;;;6185782;23;20329;-84
2022/02/07 18:38:55;;;;;;;0.68;0.68;;;;;;;;;;6185749;23;20413;-84
2022/02/07 18:41:24;;;;;;;1.13;0.55;;;;;;;;;;6186137;23;20080;-84
2022/02/07 18:43:53;;;;;;;0.60;0.60;;;;;;;;;;6185958;23;20079;-84
2022/02/07 18:46:19;;;;;;;1.70;0.60;;;;;;;;;;6187124;23;20372;-85
2022/02/07 18:48:45;;;;;;;0.70;0.70;;;;;;;;;;6185637;23;20380;-85
2022/02/07 18:51:11;;;;;;;2.15;1.25;;;;;;;;;;6187066;23;20012;-85
2022/02/07 18:53:38;;;;;;;1.15;0.80;;;;;;;;;;6186193;23;20074;-84
2022/02/07 18:56:07;;;;;;;3.67;1.10;;;;;;;;;;6187671;23;20405;-85
2022/02/07 18:58:40;;;;;;;71.00;28.67;;;;;;;;;;6185920;23;20048;-83
2022/02/07 19:03:37;;;;;;;4.80;2.35;;;;;;;;;;6198012;23;20012;-85
2022/02/07 19:08:54;;;;;;;1.58;0.80;;;;;;;;;;6197474;23;20364;-85
2022/02/07 19:11:25;;;;;;;1.75;1.50;;;;;;;;;;6186934;23;20386;-85
2022/02/07 19:13:56;;;;;;;5.10;4.60;;;;;;;;;;6185882;23;20340;-85
2022/02/07 19:16:27;;;;;;;3.40;3.05;;;;;;;;;;6187189;23;20316;-85
2022/02/07 19:18:57;;;;;;;2.05;1.30;;;;;;;;;;6187484;23;20072;-86
2022/02/07 19:21:24;;;;;;;1.05;0.93;;;;;;;;;;6185857;23;20008;-86
2022/02/07 19:23:57;;;;;;;0.80;0.80;;;;;;;;;;6187474;23;20360;-84
2022/02/07 19:26:30;;;;;;;0.90;0.82;;;;;;;;;;6185686;23;20031;-84
2022/02/07 19:29:20;;;;;;;1.00;0.90;;;;;;;;;;6185730;23;20016;-86
2022/02/07 19:31:52;;;;;;;1.95;1.02;;;;;;;;;;6189280;23;20033;-85
2022/02/07 19:36:54;;;;;;;2.85;2.15;;;;;;;;;;6190719;23;20409;-86
2022/02/07 19:39:20;;;;;;;1.38;1.00;;;;;;;;;;6186636;23;20408;-86
2022/02/07 19:42:00;;;;;;;1.02;0.90;;;;;;;;;;6186070;23;20005;-86
2022/02/07 19:44:27;;;;;;;1.42;1.10;;;;;;;;;;6186974;23;20003;-85
2022/02/07 19:46:54;;;;;;;1.33;1.10;;;;;;;;;;6185621;23;20009;-86
2022/02/07 19:49:21;;;;;;;2.55;1.10;;;;;;;;;;6187076;23;20104;-85
2022/02/07 19:51:47;;;;;;;2.00;0.82;;;;;;;;;;6186989;23;20059;-85
2022/02/07 19:54:13;;;;;;;0.70;0.70;;;;;;;;;;6187397;23;20060;-85
2022/02/07 19:56:39;;;;;;;1.02;0.80;;;;;;;;;;6187048;23;20032;-85
2022/02/07 19:59:05;;;;;;;1.35;0.70;;;;;;;;;;6187229;23;20009;-85
2022/02/07 20:01:31;;;;;;;1.15;1.05;;;;;;;;;;6186517;23;20418;-85
2022/02/07 20:04:00;;;;;;;1.33;0.88;;;;;;;;;;6187021;23;20008;-85
2022/02/07 20:06:27;;;;;;;1.33;0.60;;;;;;;;;;6186972;23;20016;-86
2022/02/07 20:08:56;;;;;;;0.80;0.80;;;;;;;;;;6187319;23;20032;-85
2022/02/07 20:11:24;;;;;;;1.30;0.80;;;;;;;;;;6185227;23;20053;-85
2022/02/07 20:13:49;;;;;;;1.35;0.80;;;;;;;;;;6185424;23;20041;-85
2022/02/07 20:16:15;;;;;;;1.33;0.85;;;;;;;;;;6186925;23;20309;-86
2022/02/07 20:18:41;;;;;;;1.13;0.98;;;;;;;;;;6185310;23;20027;-85
2022/02/07 20:21:08;;;;;;;1.00;1.00;;;;;;;;;;6186889;23;20063;-86
2022/02/07 20:23:35;;;;;;;1.10;0.88;;;;;;;;;;6187019;23;20005;-86
2022/02/07 20:26:03;;;;;;;1.15;0.80;;;;;;;;;;6187110;23;20052;-86
2022/02/07 20:28:28;;;;;;;1.50;1.00;;;;;;;;;;6186394;23;20015;-85
2022/02/07 20:30:54;;;;;;;1.30;1.10;;;;;;;;;;6186456;23;20028;-85
2022/02/07 20:33:21;;;;;;;2.13;1.52;;;;;;;;;;6185493;23;20012;-86
2022/02/07 20:35:46;;;;;;;1.48;1.27;;;;;;;;;;6185052;23;20009;-85
2022/02/07 20:38:12;;;;;;;2.53;1.55;;;;;;;;;;6186734;23;20001;-86
2022/02/07 20:40:38;;;;;;;2.05;0.90;;;;;;;;;;6187418;23;20507;-86
2022/02/07 20:43:10;;;;;;;1.63;0.93;;;;;;;;;;6186793;23;20005;-87
2022/02/07 20:45:38;;;;;;;0.77;0.77;;;;;;;;;;6184993;23;20456;-87
2022/02/07 20:48:09;;;;;;;1.60;1.10;;;;;;;;;;6186640;23;20001;-87
2022/02/07 20:50:37;;;;;;;8.50;3.70;;;;;;;;;;6184947;23;20017;-86
2022/02/07 20:53:04;;;;;;;5.95;3.13;;;;;;;;;;6186874;23;20005;-88
2022/02/07 20:55:29;;;;;;;5.57;2.80;;;;;;;;;;6184977;23;20004;-88
2022/02/07 20:57:55;;;;;;;2.80;1.45;;;;;;;;;;6185163;23;20013;-88
2022/02/07 21:00:24;;;;;;;21.73;9.02;;;;;;;;;;6185417;23;20332;-88
2022/02/07 21:02:49;;;;;;;21.40;7.82;;;;;;;;;;6185039;23;20413;-87
2022/02/07 21:05:19;;;;;;;2.95;1.60;;;;;;;;;;6186622;23;20005;-88
2022/02/07 21:07:46;;;;;;;3.28;1.60;;;;;;;;;;6184974;23;20059;-87
2022/02/07 21:10:14;;;;;;;6.75;2.53;;;;;;;;;;6186403;23;20020;-87
2022/02/07 21:12:40;;;;;;;10.95;3.75;;;;;;;;;;6185148;23;20333;-87
2022/02/07 21:15:07;;;;;;;2.55;1.50;;;;;;;;;;6184805;23;20005;-87
2022/02/07 21:17:32;;;;;;;0.80;0.80;;;;;;;;;;6184823;23;20084;-87
2022/02/07 21:19:58;;;;;;;10.52;4.10;;;;;;;;;;6186407;23;20024;-87
2022/02/07 21:22:26;;;;;;;10.85;6.15;;;;;;;;;;6186407;23;20028;-86
2022/02/07 21:24:51;;;;;;;5.50;3.35;;;;;;;;;;6184838;23;20332;-86
2022/02/07 21:27:19;;;;;;;1.23;0.90;;;;;;;;;;6184599;23;20005;-87
2022/02/07 21:29:45;;;;;;;1.90;1.15;;;;;;;;;;6184657;23;20006;-87
2022/02/07 21:32:10;;;;;;;3.90;1.10;;;;;;;;;;6186320;23;20001;-87
2022/02/07 21:34:36;;;;;;;1.13;0.80;;;;;;;;;;6186258;23;20005;-86
2022/02/07 21:37:02;;;;;;;2.63;1.40;;;;;;;;;;6184688;23;20314;-87
2022/02/07 21:39:28;;;;;;;2.00;1.27;;;;;;;;;;6186111;23;20001;-86
2022/02/07 21:41:54;;;;;;;2.13;1.02;;;;;;;;;;6184590;23;20433;-87
2022/02/07 21:44:20;;;;;;;1.23;0.77;;;;;;;;;;6184856;23;20012;-86
2022/02/07 21:46:46;;;;;;;0.70;0.70;;;;;;;;;;6184606;23;20024;-87
2022/02/07 21:49:14;;;;;;;0.95;0.80;;;;;;;;;;6184441;23;20005;-87
2022/02/07 21:51:40;;;;;;;1.95;0.77;;;;;;;;;;6186338;23;20005;-87
2022/02/07 21:54:07;;;;;;;1.60;0.80;;;;;;;;;;6184602;23;19997;-87
2022/02/07 21:56:33;;;;;;;1.25;0.93;;;;;;;;;;6186102;23;20302;-86
2022/02/07 21:58:58;;;;;;;1.27;1.08;;;;;;;;;;6185880;23;20012;-86
2022/02/07 22:01:24;;;;;;;2.30;1.67;;;;;;;;;;6184635;23;20408;-85
2022/02/07 22:03:49;;;;;;;3.47;1.73;;;;;;;;;;6186330;23;20457;-87
2022/02/07 22:06:15;;;;;;;0.82;0.63;;;;;;;;;;6186231;23;20425;-86
2022/02/07 22:08:43;;;;;;;1.13;0.80;;;;;;;;;;6185840;23;20364;-86
2022/02/07 22:11:15;;;;;;;1.15;0.98;;;;;;;;;;6184294;23;20092;-86
2022/02/07 22:13:49;;;;;;;1.63;1.27;;;;;;;;;;6186219;23;20060;-85
2022/02/07 22:16:18;;;;;;;2.30;1.80;;;;;;;;;;6186197;23;20005;-86
